Aviation Digital Data Service (ADDS)

Output produced by METARs form (1444 UTC 23 January 2017)
found at http://aviationweather.gov/adds/metars/
 
KPHF 231145Z 2312/2412 07013G20KT 2SM -SHRA BR OVC003 
     TEMPO 2312/2314 1/2SM SHRA FG OVC002 
     FM231400 09012G20KT 3SM -SHRA BR OVC003 
     FM231700 16007KT P6SM OVC006 
     FM232000 30005KT P6SM BKN015 
     FM240200 33007KT P6SM -SHRA OVC004 
     FM240600 32012G18KT P6SM -SHRA OVC005